Terminal Aerodrome Forecast
Issued by NWS

Home | Current Version | Previous Version | Text Only | Print | Product List | Glossary On
Versions: 1 2 3 4 5 6 7 8 9 10 11 12 13 14 15 16 17
000
FTUS44 KBMX 261100
TAFMGM
TAF
KMGM 261131Z 2612/2712 29003KT 4SM BR SCT250
      TEMPO 2612/2613 2SM BR
     FM261400 27006KT P6SM FEW050=

USA.gov is the U.S. government's official web portal to all federal, state and local government web resources and services.